sensor_id;sensor_type;location;lat;lon;timestamp;P1;durP1;ratioP1;P2;durP2;ratioP2
34902;SDS011;21114;44.840;0.214;2022-12-18T00:01:52;14.40;;;11.82;;
34902;SDS011;21114;44.840;0.214;2022-12-18T00:04:20;15.43;;;12.60;;
34902;SDS011;21114;44.840;0.214;2022-12-18T00:07:35;16.00;;;12.05;;
34902;SDS011;21114;44.840;0.214;2022-12-18T00:10:01;13.25;;;11.07;;
34902;SDS011;21114;44.840;0.214;2022-12-18T00:12:28;16.33;;;11.27;;
34902;SDS011;21114;44.840;0.214;2022-12-18T00:14:54;14.48;;;11.60;;
34902;SDS011;21114;44.840;0.214;2022-12-18T00:17:20;14.27;;;10.73;;
34902;SDS011;21114;44.840;0.214;2022-12-18T00:19:46;13.98;;;10.15;;
34902;SDS011;21114;44.840;0.214;2022-12-18T00:22:12;13.73;;;10.75;;
34902;SDS011;21114;44.840;0.214;2022-12-18T00:24:38;15.20;;;12.85;;
34902;SDS011;21114;44.840;0.214;2022-12-18T00:27:04;11.60;;;10.00;;
34902;SDS011;21114;44.840;0.214;2022-12-18T00:29:30;13.55;;;9.82;;
34902;SDS011;21114;44.840;0.214;2022-12-18T00:31:57;12.88;;;10.30;;
34902;SDS011;21114;44.840;0.214;2022-12-18T00:34:23;16.20;;;12.07;;
34902;SDS011;21114;44.840;0.214;2022-12-18T00:36:49;14.50;;;10.27;;
34902;SDS011;21114;44.840;0.214;2022-12-18T00:39:15;16.10;;;10.48;;
34902;SDS011;21114;44.840;0.214;2022-12-18T00:41:41;15.55;;;9.85;;
34902;SDS011;21114;44.840;0.214;2022-12-18T00:44:35;12.35;;;9.52;;
34902;SDS011;21114;44.840;0.214;2022-12-18T00:47:02;14.10;;;9.75;;
34902;SDS011;21114;44.840;0.214;2022-12-18T00:49:29;13.35;;;10.93;;
34902;SDS011;21114;44.840;0.214;2022-12-18T00:52:43;13.40;;;9.80;;
34902;SDS011;21114;44.840;0.214;2022-12-18T00:55:09;12.55;;;10.38;;
34902;SDS011;21114;44.840;0.214;2022-12-18T00:57:36;11.05;;;9.07;;
34902;SDS011;21114;44.840;0.214;2022-12-18T01:00:03;13.88;;;10.60;;
34902;SDS011;21114;44.840;0.214;2022-12-18T01:03:17;11.63;;;9.43;;
34902;SDS011;21114;44.840;0.214;2022-12-18T01:05:43;13.80;;;10.02;;
34902;SDS011;21114;44.840;0.214;2022-12-18T01:08:09;13.88;;;10.38;;
34902;SDS011;21114;44.840;0.214;2022-12-18T01:10:36;13.60;;;10.45;;
34902;SDS011;21114;44.840;0.214;2022-12-18T01:13:02;11.80;;;9.30;;
34902;SDS011;21114;44.840;0.214;2022-12-18T01:15:28;14.60;;;11.13;;
34902;SDS011;21114;44.840;0.214;2022-12-18T01:17:54;19.48;;;14.63;;
34902;SDS011;21114;44.840;0.214;2022-12-18T01:20:20;20.90;;;13.70;;
34902;SDS011;21114;44.840;0.214;2022-12-18T01:22:46;15.85;;;12.48;;
34902;SDS011;21114;44.840;0.214;2022-12-18T01:25:12;15.25;;;12.02;;
34902;SDS011;21114;44.840;0.214;2022-12-18T01:27:38;12.75;;;10.25;;
34902;SDS011;21114;44.840;0.214;2022-12-18T01:30:04;15.32;;;10.55;;
34902;SDS011;21114;44.840;0.214;2022-12-18T01:32:31;14.68;;;11.98;;
34902;SDS011;21114;44.840;0.214;2022-12-18T01:34:57;15.88;;;10.60;;
34902;SDS011;21114;44.840;0.214;2022-12-18T01:37:23;13.45;;;9.25;;
34902;SDS011;21114;44.840;0.214;2022-12-18T01:39:50;13.05;;;9.80;;
34902;SDS011;21114;44.840;0.214;2022-12-18T01:42:17;11.90;;;8.90;;
34902;SDS011;21114;44.840;0.214;2022-12-18T01:47:33;12.52;;;8.68;;
34902;SDS011;21114;44.840;0.214;2022-12-18T01:50:48;12.30;;;8.63;;
34902;SDS011;21114;44.840;0.214;2022-12-18T01:53:17;13.30;;;10.52;;
34902;SDS011;21114;44.840;0.214;2022-12-18T01:56:32;12.02;;;8.82;;
34902;SDS011;21114;44.840;0.214;2022-12-18T01:59:02;12.15;;;8.90;;
34902;SDS011;21114;44.840;0.214;2022-12-18T02:02:17;11.77;;;9.38;;
34902;SDS011;21114;44.840;0.214;2022-12-18T02:08:20;12.82;;;8.90;;
34902;SDS011;21114;44.840;0.214;2022-12-18T02:16:52;11.15;;;9.15;;
34902;SDS011;21114;44.840;0.214;2022-12-18T02:20:13;11.45;;;8.77;;
34902;SDS011;21114;44.840;0.214;2022-12-18T02:23:35;11.65;;;8.85;;
34902;SDS011;21114;44.840;0.214;2022-12-18T02:26:56;13.35;;;10.65;;
34902;SDS011;21114;44.840;0.214;2022-12-18T02:30:12;13.82;;;8.88;;
34902;SDS011;21114;44.840;0.214;2022-12-18T02:32:39;11.25;;;9.02;;
34902;SDS011;21114;44.840;0.214;2022-12-18T02:35:55;10.57;;;8.85;;
34902;SDS011;21114;44.840;0.214;2022-12-18T02:39:10;11.90;;;8.93;;
34902;SDS011;21114;44.840;0.214;2022-12-18T02:42:25;10.48;;;9.25;;
34902;SDS011;21114;44.840;0.214;2022-12-18T02:44:52;11.80;;;9.13;;
34902;SDS011;21114;44.840;0.214;2022-12-18T02:47:19;10.57;;;8.80;;
34902;SDS011;21114;44.840;0.214;2022-12-18T02:50:35;11.63;;;7.85;;
34902;SDS011;21114;44.840;0.214;2022-12-18T02:53:52;10.05;;;8.23;;
34902;SDS011;21114;44.840;0.214;2022-12-18T03:08:14;11.65;;;8.55;;
34902;SDS011;21114;44.840;0.214;2022-12-18T03:11:34;12.85;;;8.15;;
34902;SDS011;21114;44.840;0.214;2022-12-18T03:14:54;12.75;;;9.50;;
34902;SDS011;21114;44.840;0.214;2022-12-18T03:18:13;10.80;;;7.75;;
34902;SDS011;21114;44.840;0.214;2022-12-18T03:21:32;10.75;;;8.90;;
34902;SDS011;21114;44.840;0.214;2022-12-18T03:24:48;9.93;;;7.85;;
34902;SDS011;21114;44.840;0.214;2022-12-18T03:28:03;11.82;;;7.90;;
34902;SDS011;21114;44.840;0.214;2022-12-18T03:31:20;9.38;;;7.97;;
34902;SDS011;21114;44.840;0.214;2022-12-18T03:34:37;11.55;;;9.85;;
34902;SDS011;21114;44.840;0.214;2022-12-18T03:37:35;12.13;;;8.23;;
34902;SDS011;21114;44.840;0.214;2022-12-18T03:40:02;11.27;;;8.93;;
34902;SDS011;21114;44.840;0.214;2022-12-18T03:43:19;10.77;;;8.23;;
34902;SDS011;21114;44.840;0.214;2022-12-18T03:49:33;10.13;;;8.13;;
34902;SDS011;21114;44.840;0.214;2022-12-18T03:52:49;10.65;;;8.82;;
34902;SDS011;21114;44.840;0.214;2022-12-18T03:56:06;15.13;;;9.80;;
34902;SDS011;21114;44.840;0.214;2022-12-18T03:58:32;11.10;;;8.45;;
34902;SDS011;21114;44.840;0.214;2022-12-18T04:01:49;9.43;;;8.02;;
34902;SDS011;21114;44.840;0.214;2022-12-18T04:05:04;11.45;;;8.80;;
34902;SDS011;21114;44.840;0.214;2022-12-18T04:08:20;12.98;;;10.13;;
34902;SDS011;21114;44.840;0.214;2022-12-18T04:11:30;11.13;;;9.30;;
34902;SDS011;21114;44.840;0.214;2022-12-18T04:13:56;11.80;;;8.60;;
34902;SDS011;21114;44.840;0.214;2022-12-18T04:17:11;13.48;;;8.98;;
34902;SDS011;21114;44.840;0.214;2022-12-18T04:19:37;14.30;;;10.43;;
34902;SDS011;21114;44.840;0.214;2022-12-18T04:22:03;12.32;;;9.70;;
34902;SDS011;21114;44.840;0.214;2022-12-18T04:24:29;12.15;;;9.80;;
34902;SDS011;21114;44.840;0.214;2022-12-18T04:26:55;13.68;;;10.02;;
34902;SDS011;21114;44.840;0.214;2022-12-18T04:29:21;11.82;;;9.60;;
34902;SDS011;21114;44.840;0.214;2022-12-18T04:31:48;14.68;;;10.68;;
34902;SDS011;21114;44.840;0.214;2022-12-18T04:34:14;22.27;;;12.07;;
34902;SDS011;21114;44.840;0.214;2022-12-18T04:36:40;14.63;;;10.95;;
34902;SDS011;21114;44.840;0.214;2022-12-18T04:39:06;15.90;;;11.60;;
34902;SDS011;21114;44.840;0.214;2022-12-18T04:41:32;19.50;;;14.40;;
34902;SDS011;21114;44.840;0.214;2022-12-18T04:43:58;18.60;;;11.55;;
34902;SDS011;21114;44.840;0.214;2022-12-18T04:46:24;14.93;;;11.30;;
34902;SDS011;21114;44.840;0.214;2022-12-18T04:48:50;15.60;;;10.82;;
34902;SDS011;21114;44.840;0.214;2022-12-18T04:51:16;19.48;;;13.63;;
34902;SDS011;21114;44.840;0.214;2022-12-18T04:53:42;16.52;;;11.88;;
34902;SDS011;21114;44.840;0.214;2022-12-18T04:56:10;15.38;;;12.65;;
34902;SDS011;21114;44.840;0.214;2022-12-18T04:59:25;19.15;;;11.65;;
34902;SDS011;21114;44.840;0.214;2022-12-18T05:01:51;17.50;;;12.82;;
34902;SDS011;21114;44.840;0.214;2022-12-18T05:04:17;17.08;;;12.75;;
34902;SDS011;21114;44.840;0.214;2022-12-18T05:06:43;17.77;;;10.52;;
34902;SDS011;21114;44.840;0.214;2022-12-18T05:09:09;14.75;;;11.48;;
34902;SDS011;21114;44.840;0.214;2022-12-18T05:11:35;20.52;;;12.63;;
34902;SDS011;21114;44.840;0.214;2022-12-18T05:14:01;22.35;;;13.43;;
34902;SDS011;21114;44.840;0.214;2022-12-18T05:16:27;17.80;;;13.07;;
34902;SDS011;21114;44.840;0.214;2022-12-18T05:18:54;21.38;;;11.43;;
34902;SDS011;21114;44.840;0.214;2022-12-18T05:21:20;21.45;;;13.38;;
34902;SDS011;21114;44.840;0.214;2022-12-18T05:23:46;16.92;;;12.30;;
34902;SDS011;21114;44.840;0.214;2022-12-18T05:26:14;17.45;;;12.55;;
34902;SDS011;21114;44.840;0.214;2022-12-18T05:29:29;18.23;;;10.52;;
34902;SDS011;21114;44.840;0.214;2022-12-18T05:31:55;16.80;;;12.48;;
34902;SDS011;21114;44.840;0.214;2022-12-18T05:34:21;16.67;;;11.80;;
34902;SDS011;21114;44.840;0.214;2022-12-18T05:36:47;19.17;;;12.27;;
34902;SDS011;21114;44.840;0.214;2022-12-18T05:39:13;14.60;;;10.32;;
34902;SDS011;21114;44.840;0.214;2022-12-18T05:41:39;17.08;;;12.68;;
34902;SDS011;21114;44.840;0.214;2022-12-18T05:44:05;16.35;;;11.68;;
34902;SDS011;21114;44.840;0.214;2022-12-18T05:46:32;20.83;;;11.90;;
34902;SDS011;21114;44.840;0.214;2022-12-18T05:48:59;14.90;;;11.15;;
34902;SDS011;21114;44.840;0.214;2022-12-18T05:52:14;19.02;;;12.57;;
34902;SDS011;21114;44.840;0.214;2022-12-18T05:54:40;16.58;;;12.85;;
34902;SDS011;21114;44.840;0.214;2022-12-18T05:57:06;16.05;;;11.75;;
34902;SDS011;21114;44.840;0.214;2022-12-18T05:59:32;19.75;;;14.40;;
34902;SDS011;21114;44.840;0.214;2022-12-18T06:01:58;17.17;;;11.52;;
34902;SDS011;21114;44.840;0.214;2022-12-18T06:04:26;24.88;;;13.00;;
34902;SDS011;21114;44.840;0.214;2022-12-18T06:07:41;15.68;;;11.48;;
34902;SDS011;21114;44.840;0.214;2022-12-18T06:10:07;15.88;;;11.48;;
34902;SDS011;21114;44.840;0.214;2022-12-18T06:12:33;15.98;;;11.13;;
34902;SDS011;21114;44.840;0.214;2022-12-18T06:14:59;23.08;;;12.43;;
34902;SDS011;21114;44.840;0.214;2022-12-18T06:17:33;17.35;;;12.00;;
34902;SDS011;21114;44.840;0.214;2022-12-18T06:20:55;16.40;;;11.85;;
34902;SDS011;21114;44.840;0.214;2022-12-18T06:24:09;17.75;;;11.05;;
34902;SDS011;21114;44.840;0.214;2022-12-18T06:26:37;13.35;;;11.07;;
34902;SDS011;21114;44.840;0.214;2022-12-18T06:29:52;14.85;;;10.70;;
34902;SDS011;21114;44.840;0.214;2022-12-18T06:32:18;13.70;;;10.93;;
34902;SDS011;21114;44.840;0.214;2022-12-18T06:34:44;17.75;;;11.13;;
34902;SDS011;21114;44.840;0.214;2022-12-18T06:37:10;14.48;;;10.43;;
34902;SDS011;21114;44.840;0.214;2022-12-18T06:39:36;13.45;;;9.82;;
34902;SDS011;21114;44.840;0.214;2022-12-18T06:42:02;15.43;;;11.65;;
34902;SDS011;21114;44.840;0.214;2022-12-18T06:45:17;15.95;;;10.65;;
34902;SDS011;21114;44.840;0.214;2022-12-18T06:47:44;13.38;;;9.60;;
34902;SDS011;21114;44.840;0.214;2022-12-18T06:50:11;14.15;;;10.93;;
34902;SDS011;21114;44.840;0.214;2022-12-18T06:53:25;12.32;;;10.18;;
34902;SDS011;21114;44.840;0.214;2022-12-18T06:55:52;13.25;;;10.48;;
34902;SDS011;21114;44.840;0.214;2022-12-18T06:58:19;14.43;;;9.55;;
34902;SDS011;21114;44.840;0.214;2022-12-18T07:00:45;15.13;;;11.27;;
34902;SDS011;21114;44.840;0.214;2022-12-18T07:03:11;15.32;;;10.80;;
34902;SDS011;21114;44.840;0.214;2022-12-18T07:05:40;14.60;;;10.35;;
34902;SDS011;21114;44.840;0.214;2022-12-18T07:08:55;18.40;;;12.20;;
34902;SDS011;21114;44.840;0.214;2022-12-18T07:11:21;14.82;;;11.00;;
34902;SDS011;21114;44.840;0.214;2022-12-18T07:13:48;13.25;;;9.63;;
34902;SDS011;21114;44.840;0.214;2022-12-18T07:16:15;15.35;;;11.55;;
34902;SDS011;21114;44.840;0.214;2022-12-18T07:19:32;16.30;;;11.00;;
34902;SDS011;21114;44.840;0.214;2022-12-18T07:21:58;13.80;;;10.60;;
34902;SDS011;21114;44.840;0.214;2022-12-18T07:24:24;15.75;;;10.80;;
34902;SDS011;21114;44.840;0.214;2022-12-18T07:26:50;13.30;;;10.98;;
34902;SDS011;21114;44.840;0.214;2022-12-18T07:29:17;15.65;;;11.68;;
34902;SDS011;21114;44.840;0.214;2022-12-18T07:31:43;15.57;;;11.18;;
34902;SDS011;21114;44.840;0.214;2022-12-18T07:34:12;14.68;;;12.82;;
34902;SDS011;21114;44.840;0.214;2022-12-18T07:37:27;12.68;;;9.80;;
34902;SDS011;21114;44.840;0.214;2022-12-18T07:39:53;13.55;;;10.55;;
34902;SDS011;21114;44.840;0.214;2022-12-18T07:42:19;14.40;;;11.20;;
34902;SDS011;21114;44.840;0.214;2022-12-18T07:45:14;18.88;;;9.93;;
34902;SDS011;21114;44.840;0.214;2022-12-18T07:47:40;12.52;;;9.35;;
34902;SDS011;21114;44.840;0.214;2022-12-18T07:50:06;14.10;;;10.50;;
34902;SDS011;21114;44.840;0.214;2022-12-18T07:52:32;14.60;;;11.50;;
34902;SDS011;21114;44.840;0.214;2022-12-18T07:54:58;16.08;;;11.75;;
34902;SDS011;21114;44.840;0.214;2022-12-18T07:57:24;13.75;;;10.63;;
34902;SDS011;21114;44.840;0.214;2022-12-18T07:59:50;19.63;;;12.90;;
34902;SDS011;21114;44.840;0.214;2022-12-18T08:02:17;16.83;;;13.77;;
34902;SDS011;21114;44.840;0.214;2022-12-18T08:04:43;28.20;;;19.13;;
34902;SDS011;21114;44.840;0.214;2022-12-18T08:07:09;26.55;;;18.98;;
34902;SDS011;21114;44.840;0.214;2022-12-18T08:09:35;18.88;;;13.15;;
34902;SDS011;21114;44.840;0.214;2022-12-18T08:12:01;15.70;;;13.32;;
34902;SDS011;21114;44.840;0.214;2022-12-18T08:14:27;21.75;;;16.00;;
34902;SDS011;21114;44.840;0.214;2022-12-18T08:16:53;19.23;;;14.55;;
34902;SDS011;21114;44.840;0.214;2022-12-18T08:19:19;15.60;;;11.75;;
34902;SDS011;21114;44.840;0.214;2022-12-18T08:21:45;14.07;;;11.57;;
34902;SDS011;21114;44.840;0.214;2022-12-18T08:24:11;15.23;;;12.32;;
34902;SDS011;21114;44.840;0.214;2022-12-18T08:26:38;12.88;;;9.88;;
34902;SDS011;21114;44.840;0.214;2022-12-18T08:29:04;14.85;;;10.90;;
34902;SDS011;21114;44.840;0.214;2022-12-18T08:31:30;15.60;;;10.82;;
34902;SDS011;21114;44.840;0.214;2022-12-18T08:33:57;11.40;;;9.25;;
34902;SDS011;21114;44.840;0.214;2022-12-18T08:37:11;14.02;;;11.10;;
34902;SDS011;21114;44.840;0.214;2022-12-18T08:39:37;15.20;;;10.85;;
34902;SDS011;21114;44.840;0.214;2022-12-18T08:42:03;13.77;;;9.20;;
34902;SDS011;21114;44.840;0.214;2022-12-18T08:44:56;13.85;;;11.05;;
34902;SDS011;21114;44.840;0.214;2022-12-18T08:47:22;13.30;;;9.77;;
34902;SDS011;21114;44.840;0.214;2022-12-18T08:49:48;12.88;;;10.15;;
34902;SDS011;21114;44.840;0.214;2022-12-18T08:52:14;12.02;;;10.82;;
34902;SDS011;21114;44.840;0.214;2022-12-18T08:54:40;13.77;;;9.73;;
34902;SDS011;21114;44.840;0.214;2022-12-18T08:57:06;12.65;;;10.38;;
34902;SDS011;21114;44.840;0.214;2022-12-18T08:59:32;12.75;;;10.70;;
34902;SDS011;21114;44.840;0.214;2022-12-18T09:01:58;14.32;;;11.68;;
34902;SDS011;21114;44.840;0.214;2022-12-18T09:04:25;14.75;;;9.77;;
34902;SDS011;21114;44.840;0.214;2022-12-18T09:06:51;12.48;;;10.38;;
34902;SDS011;21114;44.840;0.214;2022-12-18T09:09:17;11.70;;;9.90;;
34902;SDS011;21114;44.840;0.214;2022-12-18T09:11:43;13.27;;;11.45;;
34902;SDS011;21114;44.840;0.214;2022-12-18T09:14:09;11.27;;;9.63;;
34902;SDS011;21114;44.840;0.214;2022-12-18T09:16:35;11.80;;;9.23;;
34902;SDS011;21114;44.840;0.214;2022-12-18T09:19:02;11.13;;;9.07;;
34902;SDS011;21114;44.840;0.214;2022-12-18T09:22:17;13.00;;;9.18;;
34902;SDS011;21114;44.840;0.214;2022-12-18T09:24:43;11.25;;;10.15;;
34902;SDS011;21114;44.840;0.214;2022-12-18T09:27:09;12.40;;;10.55;;
34902;SDS011;21114;44.840;0.214;2022-12-18T09:29:35;10.43;;;8.98;;
34902;SDS011;21114;44.840;0.214;2022-12-18T09:32:01;11.40;;;8.90;;
34902;SDS011;21114;44.840;0.214;2022-12-18T09:34:27;12.77;;;9.70;;
34902;SDS011;21114;44.840;0.214;2022-12-18T09:36:53;13.48;;;10.20;;
34902;SDS011;21114;44.840;0.214;2022-12-18T09:39:20;12.18;;;10.68;;
34902;SDS011;21114;44.840;0.214;2022-12-18T09:49:44;12.68;;;11.38;;
34902;SDS011;21114;44.840;0.214;2022-12-18T09:53:02;14.15;;;9.35;;
34902;SDS011;21114;44.840;0.214;2022-12-18T09:56:19;12.20;;;10.77;;
34902;SDS011;21114;44.840;0.214;2022-12-18T09:59:36;12.40;;;10.93;;
34902;SDS011;21114;44.840;0.214;2022-12-18T10:02:52;12.68;;;10.80;;
34902;SDS011;21114;44.840;0.214;2022-12-18T10:17:12;12.93;;;10.02;;
34902;SDS011;21114;44.840;0.214;2022-12-18T10:25:55;7.20;;;6.30;;
34902;SDS011;21114;44.840;0.214;2022-12-18T10:29:14;5.40;;;4.68;;
34902;SDS011;21114;44.840;0.214;2022-12-18T10:32:29;6.55;;;5.22;;
34902;SDS011;21114;44.840;0.214;2022-12-18T10:35:44;6.18;;;5.25;;
34902;SDS011;21114;44.840;0.214;2022-12-18T10:39:13;4.57;;;3.92;;
34902;SDS011;21114;44.840;0.214;2022-12-18T10:42:28;10.65;;;5.50;;
34902;SDS011;21114;44.840;0.214;2022-12-18T10:45:01;9.25;;;6.75;;
34902;SDS011;21114;44.840;0.214;2022-12-18T10:48:17;6.68;;;5.45;;
34902;SDS011;21114;44.840;0.214;2022-12-18T10:51:33;6.35;;;5.35;;
34902;SDS011;21114;44.840;0.214;2022-12-18T10:54:52;6.65;;;5.15;;
34902;SDS011;21114;44.840;0.214;2022-12-18T11:01:03;6.63;;;3.95;;
34902;SDS011;21114;44.840;0.214;2022-12-18T11:04:22;4.35;;;3.95;;
34902;SDS011;21114;44.840;0.214;2022-12-18T11:13:09;5.78;;;4.05;;
34902;SDS011;21114;44.840;0.214;2022-12-18T11:16:24;5.90;;;3.30;;
34902;SDS011;21114;44.840;0.214;2022-12-18T11:19:33;4.25;;;3.85;;
34902;SDS011;21114;44.840;0.214;2022-12-18T11:22:57;5.15;;;3.95;;
34902;SDS011;21114;44.840;0.214;2022-12-18T11:26:12;4.35;;;3.63;;
34902;SDS011;21114;44.840;0.214;2022-12-18T11:31:21;3.55;;;2.80;;
34902;SDS011;21114;44.840;0.214;2022-12-18T11:34:33;5.15;;;3.88;;
34902;SDS011;21114;44.840;0.214;2022-12-18T11:36:59;5.03;;;2.78;;
34902;SDS011;21114;44.840;0.214;2022-12-18T11:40:19;5.53;;;3.83;;
34902;SDS011;21114;44.840;0.214;2022-12-18T11:43:47;3.45;;;2.97;;
34902;SDS011;21114;44.840;0.214;2022-12-18T11:47:09;6.10;;;2.90;;
34902;SDS011;21114;44.840;0.214;2022-12-18T11:50:31;6.47;;;4.05;;
34902;SDS011;21114;44.840;0.214;2022-12-18T11:53:47;4.40;;;3.05;;
34902;SDS011;21114;44.840;0.214;2022-12-18T12:17:58;3.45;;;3.08;;
34902;SDS011;21114;44.840;0.214;2022-12-18T12:21:22;5.22;;;3.05;;
34902;SDS011;21114;44.840;0.214;2022-12-18T12:24:42;6.20;;;4.47;;
34902;SDS011;21114;44.840;0.214;2022-12-18T12:38:49;5.65;;;3.33;;
34902;SDS011;21114;44.840;0.214;2022-12-18T12:41:34;4.10;;;3.00;;
34902;SDS011;21114;44.840;0.214;2022-12-18T12:45:20;4.63;;;3.22;;
34902;SDS011;21114;44.840;0.214;2022-12-18T12:53:54;5.13;;;3.40;;
34902;SDS011;21114;44.840;0.214;2022-12-18T12:57:12;3.90;;;2.85;;
34902;SDS011;21114;44.840;0.214;2022-12-18T13:00:30;4.30;;;2.83;;
34902;SDS011;21114;44.840;0.214;2022-12-18T13:03:41;3.55;;;3.25;;
34902;SDS011;21114;44.840;0.214;2022-12-18T13:07:01;3.42;;;2.80;;
34902;SDS011;21114;44.840;0.214;2022-12-18T13:12:59;4.22;;;3.08;;
34902;SDS011;21114;44.840;0.214;2022-12-18T13:16:14;3.47;;;2.92;;
34902;SDS011;21114;44.840;0.214;2022-12-18T13:19:32;3.40;;;2.65;;
34902;SDS011;21114;44.840;0.214;2022-12-18T13:21:58;3.13;;;2.33;;
34902;SDS011;21114;44.840;0.214;2022-12-18T13:24:26;4.35;;;3.65;;
34902;SDS011;21114;44.840;0.214;2022-12-18T13:30:53;11.48;;;7.10;;
34902;SDS011;21114;44.840;0.214;2022-12-18T13:36:50;3.38;;;3.08;;
34902;SDS011;21114;44.840;0.214;2022-12-18T13:39:41;3.92;;;3.50;;
34902;SDS011;21114;44.840;0.214;2022-12-18T13:44:46;11.27;;;8.05;;
34902;SDS011;21114;44.840;0.214;2022-12-18T13:50:11;4.40;;;2.95;;
34902;SDS011;21114;44.840;0.214;2022-12-18T13:53:42;4.35;;;3.30;;
34902;SDS011;21114;44.840;0.214;2022-12-18T13:56:43;2.80;;;2.33;;
34902;SDS011;21114;44.840;0.214;2022-12-18T13:59:43;4.70;;;3.05;;
34902;SDS011;21114;44.840;0.214;2022-12-18T14:02:18;5.18;;;3.38;;
34902;SDS011;21114;44.840;0.214;2022-12-18T14:05:35;3.63;;;2.55;;
34902;SDS011;21114;44.840;0.214;2022-12-18T14:08:45;3.85;;;3.20;;
34902;SDS011;21114;44.840;0.214;2022-12-18T14:11:59;4.10;;;3.40;;
34902;SDS011;21114;44.840;0.214;2022-12-18T14:20:55;4.05;;;3.65;;
34902;SDS011;21114;44.840;0.214;2022-12-18T14:26:51;6.50;;;5.30;;
34902;SDS011;21114;44.840;0.214;2022-12-18T14:29:18;4.95;;;3.25;;
34902;SDS011;21114;44.840;0.214;2022-12-18T14:32:33;3.45;;;3.15;;
34902;SDS011;21114;44.840;0.214;2022-12-18T14:34:59;5.63;;;3.30;;
34902;SDS011;21114;44.840;0.214;2022-12-18T14:38:30;3.90;;;2.83;;
34902;SDS011;21114;44.840;0.214;2022-12-18T14:41:45;4.47;;;3.10;;
34902;SDS011;21114;44.840;0.214;2022-12-18T14:44:12;8.20;;;3.53;;
34902;SDS011;21114;44.840;0.214;2022-12-18T14:47:26;3.92;;;2.90;;
34902;SDS011;21114;44.840;0.214;2022-12-18T14:49:52;4.72;;;3.67;;
34902;SDS011;21114;44.840;0.214;2022-12-18T14:52:22;3.47;;;3.17;;
34902;SDS011;21114;44.840;0.214;2022-12-18T14:55:37;5.90;;;3.08;;
34902;SDS011;21114;44.840;0.214;2022-12-18T14:58:03;4.53;;;2.67;;
34902;SDS011;21114;44.840;0.214;2022-12-18T15:00:29;3.13;;;2.65;;
34902;SDS011;21114;44.840;0.214;2022-12-18T15:03:44;3.72;;;2.45;;
34902;SDS011;21114;44.840;0.214;2022-12-18T15:06:21;6.15;;;3.85;;
34902;SDS011;21114;44.840;0.214;2022-12-18T15:09:39;3.67;;;2.90;;
34902;SDS011;21114;44.840;0.214;2022-12-18T15:20:56;11.10;;;7.88;;
34902;SDS011;21114;44.840;0.214;2022-12-18T15:24:20;3.47;;;3.13;;
34902;SDS011;21114;44.840;0.214;2022-12-18T15:27:36;3.38;;;2.83;;
34902;SDS011;21114;44.840;0.214;2022-12-18T15:32:49;4.38;;;3.22;;
34902;SDS011;21114;44.840;0.214;2022-12-18T15:36:05;5.85;;;3.67;;
34902;SDS011;21114;44.840;0.214;2022-12-18T15:39:22;4.28;;;3.15;;
34902;SDS011;21114;44.840;0.214;2022-12-18T15:41:48;8.02;;;6.47;;
34902;SDS011;21114;44.840;0.214;2022-12-18T15:44:43;8.27;;;3.50;;
34902;SDS011;21114;44.840;0.214;2022-12-18T15:47:10;6.10;;;4.30;;
34902;SDS011;21114;44.840;0.214;2022-12-18T15:50:28;4.85;;;3.47;;
34902;SDS011;21114;44.840;0.214;2022-12-18T15:52:54;4.53;;;3.55;;
34902;SDS011;21114;44.840;0.214;2022-12-18T15:55:21;6.43;;;3.95;;
34902;SDS011;21114;44.840;0.214;2022-12-18T15:59:12;11.82;;;4.18;;
34902;SDS011;21114;44.840;0.214;2022-12-18T16:02:27;4.43;;;4.03;;
34902;SDS011;21114;44.840;0.214;2022-12-18T16:05:43;5.40;;;3.92;;
34902;SDS011;21114;44.840;0.214;2022-12-18T16:08:09;8.13;;;4.63;;
34902;SDS011;21114;44.840;0.214;2022-12-18T16:10:35;5.15;;;4.13;;
34902;SDS011;21114;44.840;0.214;2022-12-18T16:13:01;4.95;;;3.97;;
34902;SDS011;21114;44.840;0.214;2022-12-18T16:15:27;5.57;;;4.03;;
34902;SDS011;21114;44.840;0.214;2022-12-18T16:17:53;4.53;;;4.07;;
34902;SDS011;21114;44.840;0.214;2022-12-18T16:20:20;5.70;;;4.90;;
34902;SDS011;21114;44.840;0.214;2022-12-18T16:23:35;5.90;;;5.15;;
34902;SDS011;21114;44.840;0.214;2022-12-18T16:26:01;6.82;;;5.25;;
34902;SDS011;21114;44.840;0.214;2022-12-18T16:28:27;6.90;;;4.45;;
34902;SDS011;21114;44.840;0.214;2022-12-18T16:30:53;8.48;;;7.13;;
34902;SDS011;21114;44.840;0.214;2022-12-18T16:33:19;4.45;;;4.05;;
34902;SDS011;21114;44.840;0.214;2022-12-18T16:35:50;4.78;;;4.20;;
34902;SDS011;21114;44.840;0.214;2022-12-18T16:38:47;6.47;;;5.72;;
34902;SDS011;21114;44.840;0.214;2022-12-18T16:41:18;8.57;;;6.72;;
34902;SDS011;21114;44.840;0.214;2022-12-18T16:44:33;8.23;;;6.18;;
34902;SDS011;21114;44.840;0.214;2022-12-18T16:47:48;8.50;;;6.70;;
34902;SDS011;21114;44.840;0.214;2022-12-18T16:50:14;8.57;;;5.78;;
34902;SDS011;21114;44.840;0.214;2022-12-18T16:52:40;5.75;;;5.15;;
34902;SDS011;21114;44.840;0.214;2022-12-18T16:55:06;5.78;;;5.22;;
34902;SDS011;21114;44.840;0.214;2022-12-18T16:57:32;19.42;;;6.70;;
34902;SDS011;21114;44.840;0.214;2022-12-18T16:59:58;8.18;;;6.18;;
34902;SDS011;21114;44.840;0.214;2022-12-18T17:02:25;8.35;;;7.55;;
34902;SDS011;21114;44.840;0.214;2022-12-18T17:05:39;6.25;;;5.50;;
34902;SDS011;21114;44.840;0.214;2022-12-18T17:08:05;5.88;;;4.15;;
34902;SDS011;21114;44.840;0.214;2022-12-18T17:10:33;6.63;;;5.20;;
34902;SDS011;21114;44.840;0.214;2022-12-18T17:13:45;7.97;;;6.85;;
34902;SDS011;21114;44.840;0.214;2022-12-18T17:16:11;7.05;;;6.40;;
34902;SDS011;21114;44.840;0.214;2022-12-18T17:18:37;6.93;;;6.28;;
34902;SDS011;21114;44.840;0.214;2022-12-18T17:21:05;5.63;;;4.80;;
34902;SDS011;21114;44.840;0.214;2022-12-18T17:24:19;6.43;;;5.57;;
34902;SDS011;21114;44.840;0.214;2022-12-18T17:26:46;8.52;;;7.40;;
34902;SDS011;21114;44.840;0.214;2022-12-18T17:30:01;7.05;;;5.68;;
34902;SDS011;21114;44.840;0.214;2022-12-18T17:32:28;7.63;;;6.70;;
34902;SDS011;21114;44.840;0.214;2022-12-18T17:35:43;6.75;;;6.03;;
34902;SDS011;21114;44.840;0.214;2022-12-18T17:38:09;7.25;;;6.13;;
34902;SDS011;21114;44.840;0.214;2022-12-18T17:40:35;5.50;;;4.95;;
34902;SDS011;21114;44.840;0.214;2022-12-18T17:43:01;7.90;;;5.00;;
34902;SDS011;21114;44.840;0.214;2022-12-18T17:45:27;8.02;;;7.22;;
34902;SDS011;21114;44.840;0.214;2022-12-18T17:47:54;11.23;;;8.48;;
34902;SDS011;21114;44.840;0.214;2022-12-18T17:51:12;7.82;;;6.25;;
34902;SDS011;21114;44.840;0.214;2022-12-18T17:54:26;9.40;;;7.30;;
34902;SDS011;21114;44.840;0.214;2022-12-18T17:56:52;7.88;;;7.07;;
34902;SDS011;21114;44.840;0.214;2022-12-18T17:59:19;8.35;;;7.35;;
34902;SDS011;21114;44.840;0.214;2022-12-18T18:01:45;7.90;;;6.38;;
34902;SDS011;21114;44.840;0.214;2022-12-18T18:04:12;7.82;;;6.57;;
34902;SDS011;21114;44.840;0.214;2022-12-18T18:07:26;8.57;;;7.22;;
34902;SDS011;21114;44.840;0.214;2022-12-18T18:09:52;7.22;;;6.43;;
34902;SDS011;21114;44.840;0.214;2022-12-18T18:12:18;7.60;;;5.70;;
34902;SDS011;21114;44.840;0.214;2022-12-18T18:15:11;6.75;;;5.32;;
34902;SDS011;21114;44.840;0.214;2022-12-18T18:17:37;5.65;;;4.78;;
34902;SDS011;21114;44.840;0.214;2022-12-18T18:20:03;8.05;;;6.75;;
34902;SDS011;21114;44.840;0.214;2022-12-18T18:22:30;9.73;;;7.70;;
34902;SDS011;21114;44.840;0.214;2022-12-18T18:24:56;7.95;;;6.85;;
34902;SDS011;21114;44.840;0.214;2022-12-18T18:27:22;7.80;;;7.03;;
34902;SDS011;21114;44.840;0.214;2022-12-18T18:29:48;8.27;;;7.40;;